Martinsville, IN

12:11 AM EDT on August 25, 2016 (GMT -0400)
Lake Edgewood | | Change Station

Elev 663 ft 39.45 °N, 86.45 °W | Updated 1 minute ago

Clear
Clear
79.2 °F
Feels Like 80 °F
N
0.0
Wind Variable Wind from East
Gusts 0.7 mph

Today
High -- | Low -- °F
--% Chance of Precip.
Yesterday
High -- | Low -- °F
Precip. -- in
Pressure 30.02 in
Visibility 10.0 miles
Clouds Clear
Heat Index 80 °F
Dew Point 57 °F
Humidity 47%
Rainfall 0.00 in
Snow Depth Not available.
7:08 AM 8:26 PM
Waning Gibbous, 50% visible
METAR KBMG 250353Z AUTO 23007KT 10SM CLR 26/22 A3005 RMK AO2 SLP165 T02610222
Pressure 30.02 in
Visibility 10.0 miles
Clouds Clear
Heat Index 80 °F
Dew Point 57 °F
Humidity 47%
Rainfall 0.00 in
Snow Depth Not available.
7:08 AM 8:26 PM
Waning Gibbous, 50% visible
METAR KBMG 250353Z AUTO 23007KT 10SM CLR 26/22 A3005 RMK AO2 SLP165 T02610222

10-Day Weather Forecast

Almanac

Astronomy

Aug. 25, 2016 Rise Set
Actual Time
Civil Twilight
Nautical Twilight
Astronomical Twilight
Moon
Length of Visible Light
Length of Day
Tomorrow will be .
, % of the Moon is Illuminated

Today's Extremes

State Highs State Lows

Community

WunderPhotos

Upload Photos

1,934,796 photos uploaded!

WunderBlog® & News

Nearby

Air Quality

  Air Quality AQ Index Pollutant
Not available.

Snow Depth

Station Depth Elevation

Earthquake Activity

City Distance Mag. Time & Date
Minimum magnitude displayed is 2.5.

Coastal Water Temperatures

Place Temperature

Stations

Nearby Weather Stations

Station Location Temp. Windchill Dew Point Humidity Wind Precip. Elev Updated Type
                   

Watches & Warnings

There are currently no watches in effect.